createdAt,value
2022-08-05T00:00:55.145Z,6.38
2022-08-05T00:03:24.004Z,6.45
2022-08-05T00:06:06.610Z,6.95
2022-08-05T00:08:40.439Z,7.00
2022-08-05T00:11:20.656Z,6.13
2022-08-05T00:13:55.568Z,6.32
2022-08-05T00:16:36.553Z,6.50
2022-08-05T00:19:11.840Z,6.72
2022-08-05T00:21:39.291Z,7.30
2022-08-05T00:24:11.250Z,6.72
2022-08-05T00:26:51.668Z,7.22
2022-08-05T00:29:22.830Z,6.72
2022-08-05T00:32:13.013Z,7.55
2022-08-05T00:34:54.545Z,7.20
2022-08-05T00:37:50.482Z,7.28
2022-08-05T00:40:17.965Z,7.43
2022-08-05T00:42:55.589Z,6.82
2022-08-05T00:45:39.075Z,7.88
2022-08-05T00:48:10.897Z,8.07
2022-08-05T00:50:41.236Z,7.70
2022-08-05T00:54:01.375Z,7.45
2022-08-05T00:55:57.181Z,8.13
2022-08-05T00:58:27.412Z,7.93
2022-08-05T01:00:55.411Z,7.75
2022-08-05T01:03:23.484Z,6.93
2022-08-05T01:05:54.670Z,7.10
2022-08-05T01:08:40.259Z,6.32
2022-08-05T01:11:13.618Z,6.30
2022-08-05T01:13:58.658Z,6.07
2022-08-05T01:16:29.915Z,5.95
2022-08-05T01:19:00.750Z,6.20
2022-08-05T01:21:38.523Z,6.25
2022-08-05T01:24:13.087Z,6.07
2022-08-05T01:26:48.989Z,6.85
2022-08-05T01:29:23.231Z,6.55
2022-08-05T01:31:52.320Z,7.45
2022-08-05T01:34:21.991Z,6.57
2022-08-05T01:36:55.874Z,8.45
2022-08-05T01:39:45.815Z,8.63
2022-08-05T01:42:16.117Z,7.95
2022-08-05T01:44:54.228Z,7.78
2022-08-05T01:47:23.274Z,8.35
2022-08-05T01:50:02.107Z,8.48
2022-08-05T01:52:30.839Z,8.48
2022-08-05T01:55:02.452Z,8.05
2022-08-05T01:58:10.720Z,7.93
2022-08-05T02:00:30.065Z,8.27
2022-08-05T02:02:59.573Z,8.38
2022-08-05T02:05:34.157Z,9.32
2022-08-05T02:08:03.425Z,9.68
2022-08-05T02:10:32.886Z,8.90
2022-08-05T02:13:02.353Z,9.50
2022-08-05T02:15:35.923Z,9.65
